Republic, Pennsylvania
Current Conditions -  °F | °C
As of 8:53 PM on Friday 24 Oct 2014 (Local Time) from KMGW Reporting Station
Clear Clear  
Wind Chill: 46°   Ceiling: Unl
Heat Index: 48°   Visibility: 10mi
Dew Point: 38°   Wind: 5mph
Humidity: 68%   Direction: 180°S
Pressure: 30.04"   Gusts: NA
Location:  39.96°N, 79.88°W
Report Text: KMGW 250053Z 18004KT 10SM CLR 09/03 A3004 RMK AO2 SLP175 T00890033
Loading
Personal Weather Stations






























Interactive Weather Map
Tropical Storm Tracking
New forecast layout! Learn more

10-Day Weather Forecast

Advertisements
Track Severe Weather on mobile